createdAt,value
2018-11-07T00:02:00.785Z,82.30
2018-11-07T00:04:28.552Z,82.80
2018-11-07T00:06:56.357Z,83.20
2018-11-07T00:09:24.145Z,83.10
2018-11-07T00:11:52.028Z,82.70
2018-11-07T00:14:19.818Z,82.50
2018-11-07T00:16:48.392Z,82.70
2018-11-07T00:19:16.256Z,82.90
2018-11-07T00:21:44.022Z,83.00
2018-11-07T00:24:11.824Z,83.20
2018-11-07T00:26:39.656Z,83.30
2018-11-07T00:29:07.647Z,83.70
2018-11-07T00:31:35.413Z,84.10
2018-11-07T00:34:03.213Z,84.10
2018-11-07T00:36:31.361Z,84.40
2018-11-07T00:38:59.137Z,84.20
2018-11-07T00:41:26.893Z,84.30
2018-11-07T00:43:54.694Z,84.40
2018-11-07T00:46:22.489Z,84.50
2018-11-07T00:48:50.260Z,84.30
2018-11-07T00:51:18.105Z,84.50
2018-11-07T00:53:45.916Z,84.70
2018-11-07T00:56:13.737Z,84.90
2018-11-07T00:58:41.509Z,85.00
2018-11-07T01:01:09.385Z,85.00
2018-11-07T01:03:37.249Z,85.20
2018-11-07T01:06:05.046Z,85.40
2018-11-07T01:08:32.820Z,85.50
2018-11-07T01:11:00.637Z,85.50
2018-11-07T01:13:28.427Z,85.40
2018-11-07T01:15:56.219Z,85.20
2018-11-07T01:18:24.021Z,85.40
2018-11-07T01:20:51.838Z,85.60
2018-11-07T01:23:19.651Z,86.30
2018-11-07T01:25:47.421Z,85.20
2018-11-07T01:28:15.321Z,85.80
2018-11-07T01:30:43.122Z,85.70
2018-11-07T01:33:10.917Z,85.70
2018-11-07T01:35:38.816Z,85.70
2018-11-07T01:38:06.682Z,86.10
2018-11-07T01:40:34.469Z,86.40
2018-11-07T01:43:02.316Z,86.90
2018-11-07T01:45:30.154Z,86.90
2018-11-07T01:47:58.160Z,87.00
2018-11-07T01:50:25.976Z,87.00
2018-11-07T01:52:53.779Z,87.20
2018-11-07T01:55:21.617Z,87.30
2018-11-07T01:57:49.479Z,87.50
2018-11-07T02:00:17.326Z,87.90
2018-11-07T02:02:45.141Z,87.90
2018-11-07T02:05:13.344Z,88.20
2018-11-07T02:07:41.648Z,88.30
2018-11-07T02:10:10.044Z,88.30
2018-11-07T02:12:38.117Z,88.40
2018-11-07T02:15:06.527Z,88.40
2018-11-07T02:17:34.348Z,88.40
2018-11-07T02:20:02.225Z,88.50
2018-11-07T02:22:30.216Z,88.50
2018-11-07T02:24:58.068Z,88.80
2018-11-07T02:27:25.971Z,89.00
2018-11-07T02:29:53.782Z,88.90
2018-11-07T02:32:21.594Z,88.70
2018-11-07T02:34:49.410Z,88.70
2018-11-07T02:37:17.205Z,88.70
2018-11-07T02:39:45.001Z,88.70
2018-11-07T02:42:12.765Z,89.00
2018-11-07T02:44:40.615Z,89.10
2018-11-07T02:47:08.415Z,89.20
2018-11-07T02:49:36.217Z,89.60
2018-11-07T02:52:04.184Z,89.60
2018-11-07T02:54:32.049Z,89.60
2018-11-07T02:56:59.865Z,89.50
2018-11-07T02:59:27.877Z,89.40
2018-11-07T03:01:55.685Z,89.10
2018-11-07T03:04:23.550Z,89.20
2018-11-07T03:06:51.333Z,89.50
2018-11-07T03:09:19.098Z,89.40
2018-11-07T03:11:46.881Z,89.50
2018-11-07T03:14:14.754Z,89.70
2018-11-07T03:16:42.549Z,89.50
2018-11-07T03:19:10.331Z,89.30
2018-11-07T03:21:38.753Z,89.60
2018-11-07T03:24:06.608Z,89.00
2018-11-07T03:26:34.393Z,89.10
2018-11-07T03:29:02.165Z,89.00
2018-11-07T03:31:30.003Z,88.90
2018-11-07T03:33:58.170Z,87.90
2018-11-07T03:36:25.936Z,87.80
2018-11-07T03:38:53.761Z,87.60
2018-11-07T03:41:21.565Z,88.00
2018-11-07T03:43:49.373Z,88.40
2018-11-07T03:46:17.833Z,89.00
2018-11-07T03:48:45.613Z,89.40
2018-11-07T03:51:13.402Z,89.10
2018-11-07T03:53:41.244Z,89.00
2018-11-07T03:56:09.057Z,89.20
2018-11-07T03:58:36.868Z,89.30
2018-11-07T04:01:04.765Z,89.20
2018-11-07T04:03:32.537Z,89.20
2018-11-07T04:06:00.378Z,89.30
2018-11-07T04:08:28.195Z,89.20
2018-11-07T04:10:56.018Z,87.40
2018-11-07T04:13:23.792Z,86.80
2018-11-07T04:15:51.584Z,85.40
2018-11-07T04:18:19.392Z,83.80
2018-11-07T04:20:47.199Z,83.90
2018-11-07T04:23:15.234Z,83.70
2018-11-07T04:25:43.013Z,83.90
2018-11-07T04:28:10.773Z,84.40
2018-11-07T04:30:38.560Z,85.40
2018-11-07T04:33:06.366Z,86.10
2018-11-07T04:35:34.233Z,86.50
2018-11-07T04:38:02.084Z,86.80
2018-11-07T04:40:30.033Z,87.20
2018-11-07T04:42:57.853Z,87.30
2018-11-07T04:45:25.668Z,87.40
2018-11-07T04:47:53.505Z,87.40
2018-11-07T04:50:21.276Z,87.10
2018-11-07T04:52:49.692Z,86.80
2018-11-07T04:55:17.518Z,86.60
2018-11-07T04:57:45.361Z,85.60
2018-11-07T05:00:13.285Z,85.90
2018-11-07T05:02:42.266Z,86.30
2018-11-07T05:05:10.208Z,86.80
2018-11-07T05:07:37.972Z,87.40
2018-11-07T05:10:07.168Z,87.70
2018-11-07T05:12:34.950Z,87.40
2018-11-07T05:15:02.782Z,87.40
2018-11-07T05:17:30.576Z,87.50
2018-11-07T05:19:58.829Z,87.90
2018-11-07T05:22:26.605Z,88.10
2018-11-07T05:24:54.598Z,88.30
2018-11-07T05:27:22.392Z,88.30
2018-11-07T05:29:50.752Z,88.20
2018-11-07T05:32:18.550Z,88.30
2018-11-07T05:34:46.385Z,88.50
2018-11-07T05:37:14.192Z,88.50
2018-11-07T05:39:41.985Z,88.00
2018-11-07T05:42:09.820Z,87.90
2018-11-07T05:44:37.641Z,88.10
2018-11-07T05:47:05.557Z,87.80
2018-11-07T05:49:33.387Z,88.00
2018-11-07T05:52:01.320Z,88.10
2018-11-07T05:54:29.464Z,88.00
2018-11-07T05:56:57.335Z,88.00
2018-11-07T05:59:25.112Z,88.10
2018-11-07T06:01:52.897Z,87.90
2018-11-07T06:04:20.661Z,87.80
2018-11-07T06:06:48.460Z,87.60
2018-11-07T06:09:16.310Z,87.50
2018-11-07T06:11:44.073Z,87.50
2018-11-07T06:14:11.845Z,87.30
2018-11-07T06:16:39.686Z,87.00
2018-11-07T06:19:07.477Z,87.00
2018-11-07T06:21:35.294Z,87.10
2018-11-07T06:24:03.093Z,87.10
2018-11-07T06:26:30.913Z,87.10
2018-11-07T06:28:58.846Z,87.10
2018-11-07T06:31:26.626Z,87.40
2018-11-07T06:33:54.472Z,87.70
2018-11-07T06:36:22.292Z,87.90
2018-11-07T06:38:50.969Z,87.90
2018-11-07T06:41:18.801Z,87.90
2018-11-07T06:43:47.138Z,87.80
2018-11-07T06:46:14.949Z,87.70
2018-11-07T06:48:43.674Z,88.60
2018-11-07T06:51:11.508Z,88.60
2018-11-07T06:53:39.386Z,88.50
2018-11-07T06:56:07.357Z,88.00
2018-11-07T06:58:35.129Z,88.00
2018-11-07T07:01:05.237Z,87.90
2018-11-07T07:03:35.248Z,86.10
2018-11-07T07:06:03.137Z,85.70
2018-11-07T07:08:31.061Z,85.60
2018-11-07T07:10:59.109Z,85.40
2018-11-07T07:13:28.044Z,84.00
2018-11-07T07:15:55.946Z,83.60
2018-11-07T07:18:23.711Z,82.20
2018-11-07T07:20:52.845Z,81.90
2018-11-07T07:23:21.002Z,81.20
2018-11-07T07:25:48.835Z,80.00
2018-11-07T07:28:16.624Z,79.40
2018-11-07T07:30:44.533Z,79.30
2018-11-07T07:33:12.788Z,78.60
2018-11-07T07:35:40.526Z,78.10
2018-11-07T07:38:08.354Z,77.70
2018-11-07T07:40:36.156Z,78.00
2018-11-07T07:43:04.332Z,77.30
2018-11-07T07:45:32.160Z,75.20
2018-11-07T07:48:00.020Z,74.20
2018-11-07T07:50:27.848Z,75.10
2018-11-07T07:52:55.668Z,74.40
2018-11-07T07:55:23.464Z,75.30
2018-11-07T07:57:51.253Z,77.20
2018-11-07T08:00:20.395Z,76.30
2018-11-07T08:02:50.189Z,77.00
2018-11-07T08:05:17.978Z,77.70
2018-11-07T08:07:46.506Z,78.00
2018-11-07T08:10:18.445Z,78.30
2018-11-07T08:12:46.716Z,78.80
2018-11-07T08:15:15.134Z,78.40
2018-11-07T08:17:43.533Z,79.40
2018-11-07T08:20:12.297Z,78.40
2018-11-07T08:22:40.501Z,77.10
2018-11-07T08:25:08.482Z,74.70
2018-11-07T08:27:36.421Z,73.40
2018-11-07T08:30:05.772Z,69.90
2018-11-07T08:32:33.601Z,67.90
2018-11-07T08:35:01.469Z,66.60
2018-11-07T08:37:29.329Z,66.60
2018-11-07T08:39:57.074Z,65.70
2018-11-07T08:42:25.623Z,64.30
2018-11-07T08:44:53.367Z,64.10
2018-11-07T08:47:21.194Z,65.10
2018-11-07T08:49:48.960Z,66.80
2018-11-07T08:52:16.757Z,67.60
2018-11-07T08:54:44.607Z,67.90
2018-11-07T08:57:12.373Z,68.10
2018-11-07T08:59:40.193Z,68.90
2018-11-07T09:02:08.092Z,69.20
2018-11-07T09:04:35.876Z,69.30
2018-11-07T09:07:04.137Z,69.60
2018-11-07T09:09:31.980Z,70.50
2018-11-07T09:12:00.139Z,71.30
2018-11-07T09:14:27.957Z,70.70
2018-11-07T09:16:55.771Z,70.30
2018-11-07T09:19:23.963Z,69.20
2018-11-07T09:21:51.857Z,67.70
2018-11-07T09:24:19.831Z,67.10
2018-11-07T09:26:47.656Z,66.80
2018-11-07T09:29:15.510Z,68.10
2018-11-07T09:31:43.280Z,67.10
2018-11-07T09:34:11.107Z,67.20
2018-11-07T09:36:38.877Z,66.70
2018-11-07T09:39:08.257Z,65.30
2018-11-07T09:41:36.062Z,65.10
2018-11-07T09:44:04.015Z,64.50
2018-11-07T09:46:31.940Z,63.80
2018-11-07T09:48:59.900Z,63.50
2018-11-07T09:51:28.129Z,62.80
2018-11-07T09:53:56.222Z,61.70
2018-11-07T09:56:24.004Z,62.20
2018-11-07T09:58:51.777Z,62.30
2018-11-07T10:01:19.629Z,61.80
2018-11-07T10:03:47.409Z,61.00
2018-11-07T10:06:15.201Z,60.50
2018-11-07T10:08:42.992Z,59.70
2018-11-07T10:11:10.757Z,59.80
2018-11-07T10:13:38.532Z,59.90
2018-11-07T10:16:06.333Z,59.70
2018-11-07T10:18:34.122Z,59.80
2018-11-07T10:21:01.981Z,59.50
2018-11-07T10:23:29.828Z,58.90
2018-11-07T10:25:57.621Z,59.40
2018-11-07T10:28:25.512Z,59.30
2018-11-07T10:30:53.221Z,58.60
2018-11-07T10:33:21.289Z,59.40
2018-11-07T10:35:49.078Z,59.30
2018-11-07T10:38:16.937Z,57.30
2018-11-07T10:40:44.725Z,55.60
2018-11-07T10:43:12.497Z,54.00
2018-11-07T10:45:40.399Z,53.70
2018-11-07T10:48:08.306Z,53.90
2018-11-07T10:50:36.117Z,54.00
2018-11-07T10:53:04.070Z,54.50
2018-11-07T10:55:31.890Z,55.30
2018-11-07T10:57:59.753Z,55.90
2018-11-07T11:00:33.137Z,55.80
2018-11-07T11:03:09.212Z,56.30
2018-11-07T11:05:38.105Z,57.00
2018-11-07T11:08:06.065Z,57.80
2018-11-07T11:10:33.901Z,58.40
2018-11-07T11:13:01.786Z,58.70
2018-11-07T11:15:29.649Z,59.00
2018-11-07T11:17:57.448Z,59.20
2018-11-07T11:20:25.265Z,60.00
2018-11-07T11:22:53.025Z,61.50
2018-11-07T11:25:20.845Z,60.80
2018-11-07T11:27:48.653Z,59.10
2018-11-07T11:30:16.465Z,58.00
2018-11-07T11:32:44.292Z,57.20
2018-11-07T11:35:12.233Z,56.80
2018-11-07T11:37:40.089Z,57.20
2018-11-07T11:40:10.209Z,56.90
2018-11-07T11:42:37.992Z,56.90
2018-11-07T11:45:07.089Z,56.90
2018-11-07T11:47:34.896Z,57.60
2018-11-07T11:50:03.100Z,56.80
2018-11-07T11:52:30.908Z,53.90
2018-11-07T11:54:58.709Z,53.50
2018-11-07T11:57:26.556Z,51.90
2018-11-07T11:59:54.638Z,51.80
2018-11-07T12:02:22.322Z,51.90
2018-11-07T12:04:50.079Z,52.70
2018-11-07T12:07:17.892Z,51.90
2018-11-07T12:09:45.742Z,51.50
2018-11-07T12:12:13.526Z,49.10
2018-11-07T12:14:41.386Z,48.20
2018-11-07T12:17:09.209Z,46.50
2018-11-07T12:19:37.026Z,45.90
2018-11-07T12:22:04.846Z,43.60
2018-11-07T12:24:32.732Z,41.80
2018-11-07T12:27:00.792Z,40.50
2018-11-07T12:29:28.550Z,40.10
2018-11-07T12:31:56.345Z,39.10
2018-11-07T12:34:24.121Z,39.30
2018-11-07T12:36:51.995Z,39.70
2018-11-07T12:39:19.782Z,39.90
2018-11-07T12:41:47.598Z,41.60
2018-11-07T12:44:15.479Z,42.60
2018-11-07T12:46:43.285Z,42.80
2018-11-07T12:49:11.101Z,44.50
2018-11-07T12:51:38.870Z,44.30
2018-11-07T12:54:06.681Z,43.80
2018-11-07T12:56:34.482Z,42.40
2018-11-07T12:59:02.795Z,41.40
2018-11-07T13:01:30.605Z,40.50
2018-11-07T13:03:58.882Z,38.80
2018-11-07T13:06:26.693Z,38.40
2018-11-07T13:08:54.485Z,37.20
2018-11-07T13:11:22.557Z,36.20
2018-11-07T13:13:50.308Z,35.00
2018-11-07T13:16:18.114Z,33.70
2018-11-07T13:18:45.908Z,33.30
2018-11-07T13:21:14.576Z,32.70
2018-11-07T13:23:42.351Z,32.00
2018-11-07T13:26:10.157Z,31.20
2018-11-07T13:28:38.041Z,30.80
2018-11-07T13:31:05.955Z,29.90
2018-11-07T13:33:33.929Z,30.10
2018-11-07T13:36:01.894Z,30.30
2018-11-07T13:38:29.918Z,29.90
2018-11-07T13:40:57.546Z,29.90
2018-11-07T13:43:25.324Z,29.30
2018-11-07T13:45:53.231Z,28.90
2018-11-07T13:48:20.921Z,28.80
2018-11-07T13:50:48.725Z,28.90
2018-11-07T13:53:16.557Z,29.00
2018-11-07T13:55:44.341Z,28.60
2018-11-07T13:58:12.181Z,28.60
2018-11-07T14:00:39.977Z,28.10
2018-11-07T14:03:07.799Z,28.60
2018-11-07T14:05:35.767Z,28.60
2018-11-07T14:08:03.465Z,28.40
2018-11-07T14:10:31.346Z,28.40
2018-11-07T14:12:59.197Z,28.30
2018-11-07T14:15:26.997Z,28.40
2018-11-07T14:17:54.795Z,28.40
2018-11-07T14:20:22.597Z,28.40
2018-11-07T14:22:50.918Z,28.20
2018-11-07T14:25:18.736Z,28.40
2018-11-07T14:27:46.789Z,28.40
2018-11-07T14:30:16.617Z,28.30
2018-11-07T14:32:50.164Z,28.10
2018-11-07T14:35:17.937Z,28.80
2018-11-07T14:37:46.081Z,28.60
2018-11-07T14:40:13.917Z,29.10
2018-11-07T14:42:41.769Z,29.80
2018-11-07T14:45:10.773Z,30.00
2018-11-07T14:47:38.977Z,30.40
2018-11-07T14:50:07.760Z,31.00
2018-11-07T14:52:35.767Z,30.90
2018-11-07T14:55:03.980Z,30.90
2018-11-07T14:57:32.518Z,31.40
2018-11-07T15:00:00.388Z,32.30
2018-11-07T15:02:28.157Z,32.60
2018-11-07T15:04:57.913Z,32.80
2018-11-07T15:07:25.737Z,33.60
2018-11-07T15:09:54.033Z,34.10
2018-11-07T15:12:21.776Z,34.60
2018-11-07T15:14:49.536Z,35.70
2018-11-07T15:17:17.392Z,36.30
2018-11-07T15:19:45.153Z,37.20
2018-11-07T15:22:12.935Z,38.30
2018-11-07T15:24:40.802Z,39.50
2018-11-07T15:27:08.660Z,40.90
2018-11-07T15:29:36.437Z,42.20
2018-11-07T15:32:04.607Z,43.30
2018-11-07T15:34:32.516Z,44.60
2018-11-07T15:37:00.285Z,45.80
2018-11-07T15:39:28.111Z,47.10
2018-11-07T15:41:55.888Z,48.10
2018-11-07T15:44:24.133Z,49.00
2018-11-07T15:46:51.949Z,50.00
2018-11-07T15:49:19.760Z,51.10
2018-11-07T15:51:52.087Z,52.10
2018-11-07T15:54:19.929Z,53.30
2018-11-07T15:56:50.960Z,53.90
2018-11-07T15:59:18.915Z,54.80
2018-11-07T16:01:46.669Z,55.60
2018-11-07T16:04:14.504Z,56.80
2018-11-07T16:06:42.733Z,57.00
2018-11-07T16:09:10.566Z,57.70
2018-11-07T16:11:38.389Z,58.40
2018-11-07T16:14:06.209Z,59.00
2018-11-07T16:16:34.212Z,59.60
2018-11-07T16:19:02.049Z,60.10
2018-11-07T16:21:29.995Z,61.00
2018-11-07T16:23:57.892Z,61.50
2018-11-07T16:26:25.603Z,62.20
2018-11-07T16:28:53.519Z,62.70
2018-11-07T16:31:21.294Z,63.60
2018-11-07T16:33:49.108Z,64.50
2018-11-07T16:36:16.932Z,65.40
2018-11-07T16:38:44.760Z,66.70
2018-11-07T16:41:12.596Z,66.10
2018-11-07T16:43:40.449Z,66.70
2018-11-07T16:46:08.617Z,67.20
2018-11-07T16:48:37.150Z,68.00
2018-11-07T16:51:05.093Z,68.30
2018-11-07T16:53:33.090Z,68.50
2018-11-07T16:56:00.861Z,69.30
2018-11-07T16:58:28.672Z,69.90
2018-11-07T17:00:56.440Z,70.10
2018-11-07T17:03:24.581Z,71.30
2018-11-07T17:05:52.384Z,71.10
2018-11-07T17:08:20.117Z,71.80
2018-11-07T17:10:47.889Z,71.80
2018-11-07T17:13:15.673Z,72.10
2018-11-07T17:15:43.514Z,72.60
2018-11-07T17:18:11.253Z,72.90
2018-11-07T17:20:39.069Z,73.10
2018-11-07T17:23:07.169Z,73.30
2018-11-07T17:25:35.121Z,73.50
2018-11-07T17:28:03.052Z,73.60
2018-11-07T17:30:32.138Z,73.40
2018-11-07T17:32:59.916Z,73.90
2018-11-07T17:35:28.185Z,74.20
2018-11-07T17:37:56.019Z,74.20
2018-11-07T17:40:23.929Z,74.10
2018-11-07T17:42:52.216Z,74.60
2018-11-07T17:45:20.888Z,74.90
2018-11-07T17:47:49.572Z,74.90
2018-11-07T17:50:18.181Z,75.20
2018-11-07T17:52:46.153Z,75.30
2018-11-07T17:55:14.876Z,75.90
2018-11-07T17:57:42.710Z,75.70
2018-11-07T18:00:12.834Z,75.80
2018-11-07T18:02:41.029Z,75.90
2018-11-07T18:05:08.936Z,76.20
2018-11-07T18:07:37.242Z,76.40
2018-11-07T18:10:06.600Z,76.20
2018-11-07T18:12:34.464Z,76.70
2018-11-07T18:15:02.333Z,76.90
2018-11-07T18:17:30.168Z,77.20
2018-11-07T18:19:57.942Z,77.60
2018-11-07T18:22:25.755Z,77.90
2018-11-07T18:24:53.801Z,78.30
2018-11-07T18:27:21.669Z,78.70
2018-11-07T18:29:49.549Z,79.10
2018-11-07T18:32:17.403Z,78.80
2018-11-07T18:34:45.180Z,79.20
2018-11-07T18:37:12.957Z,78.90
2018-11-07T18:39:40.831Z,79.40
2018-11-07T18:42:10.062Z,79.10
2018-11-07T18:44:39.076Z,79.60
2018-11-07T18:47:06.968Z,79.60
2018-11-07T18:49:35.576Z,79.40
2018-11-07T18:52:03.507Z,80.00
2018-11-07T18:54:31.646Z,80.00
2018-11-07T18:57:00.345Z,80.40
2018-11-07T18:59:28.856Z,80.10
2018-11-07T19:01:56.697Z,80.20
2018-11-07T19:04:25.193Z,80.60
2018-11-07T19:06:53.656Z,80.10
2018-11-07T19:09:22.534Z,80.80
2018-11-07T19:11:50.883Z,81.30
2018-11-07T19:14:19.605Z,81.40
2018-11-07T19:16:48.172Z,81.40
2018-11-07T19:19:16.611Z,81.70
2018-11-07T19:21:44.420Z,81.90
2018-11-07T19:24:12.245Z,82.10
2018-11-07T19:26:40.265Z,82.50
2018-11-07T19:29:07.956Z,82.40
2018-11-07T19:31:36.180Z,82.70
2018-11-07T19:34:04.265Z,83.00
2018-11-07T19:36:32.021Z,82.70
2018-11-07T19:38:59.905Z,83.40
2018-11-07T19:41:27.652Z,83.60
2018-11-07T19:43:55.433Z,83.70
2018-11-07T19:46:23.525Z,83.70
2018-11-07T19:48:51.574Z,83.80
2018-11-07T19:51:19.372Z,84.20
2018-11-07T19:53:47.204Z,84.60
2018-11-07T19:56:15.042Z,84.40
2018-11-07T19:58:42.876Z,84.50
2018-11-07T20:01:10.792Z,84.50
2018-11-07T20:03:38.688Z,84.90
2018-11-07T20:06:06.653Z,84.90
2018-11-07T20:08:34.518Z,84.90
2018-11-07T20:11:02.269Z,84.80
2018-11-07T20:13:30.645Z,84.70
2018-11-07T20:15:58.478Z,84.50
2018-11-07T20:18:26.232Z,84.40
2018-11-07T20:20:54.041Z,84.20
2018-11-07T20:23:21.870Z,84.20
2018-11-07T20:25:49.606Z,84.10
2018-11-07T20:28:17.444Z,83.70
2018-11-07T20:30:45.249Z,83.60
2018-11-07T20:33:13.125Z,83.90
2018-11-07T20:35:41.153Z,84.00
2018-11-07T20:38:09.040Z,83.90
2018-11-07T20:40:37.089Z,83.70
2018-11-07T20:43:05.552Z,83.60
2018-11-07T20:45:33.441Z,83.50
2018-11-07T20:48:01.196Z,83.80
2018-11-07T20:50:28.996Z,83.90
2018-11-07T20:52:56.968Z,83.80
2018-11-07T20:55:24.776Z,83.60
2018-11-07T20:57:52.645Z,83.50
2018-11-07T21:00:21.617Z,83.50
2018-11-07T21:02:49.574Z,83.70
2018-11-07T21:05:17.357Z,83.60
2018-11-07T21:07:45.145Z,83.40
2018-11-07T21:10:18.684Z,83.50
2018-11-07T21:12:46.785Z,83.30
2018-11-07T21:15:15.844Z,83.20
2018-11-07T21:17:44.828Z,83.30
2018-11-07T21:20:12.711Z,83.80
2018-11-07T21:22:40.996Z,83.50
2018-11-07T21:25:09.001Z,83.40
2018-11-07T21:27:36.911Z,83.40
2018-11-07T21:30:07.008Z,83.50
2018-11-07T21:32:35.118Z,84.00
2018-11-07T21:35:03.067Z,84.30
2018-11-07T21:37:30.894Z,84.50
2018-11-07T21:39:58.719Z,84.00
2018-11-07T21:42:26.524Z,84.10
2018-11-07T21:44:54.333Z,84.40
2018-11-07T21:47:22.145Z,84.70
2018-11-07T21:49:50.237Z,84.90
2018-11-07T21:52:18.048Z,85.20
2018-11-07T21:54:46.228Z,86.00
2018-11-07T21:57:14.177Z,85.40
2018-11-07T21:59:42.029Z,85.20
2018-11-07T22:02:09.936Z,85.00
2018-11-07T22:04:37.873Z,85.20
2018-11-07T22:07:06.130Z,85.50
2018-11-07T22:09:34.012Z,85.50
2018-11-07T22:12:01.912Z,84.90
2018-11-07T22:14:29.717Z,84.70
2018-11-07T22:16:57.496Z,85.10
2018-11-07T22:19:25.284Z,85.40
2018-11-07T22:21:53.074Z,85.60
2018-11-07T22:24:22.040Z,86.10
2018-11-07T22:26:49.805Z,85.90
2018-11-07T22:29:17.733Z,85.20
2018-11-07T22:31:46.968Z,85.00
2018-11-07T22:34:19.528Z,85.10
2018-11-07T22:36:47.562Z,85.00
2018-11-07T22:39:15.367Z,84.80
2018-11-07T22:41:43.864Z,85.40
2018-11-07T22:44:11.693Z,85.40
2018-11-07T22:46:39.534Z,86.10
2018-11-07T22:49:07.549Z,86.10
2018-11-07T22:51:35.756Z,85.70
2018-11-07T22:54:04.286Z,86.20
2018-11-07T22:56:32.217Z,86.50
2018-11-07T22:59:00.026Z,87.00
2018-11-07T23:01:33.538Z,87.10
2018-11-07T23:04:01.318Z,87.20
2018-11-07T23:06:29.139Z,87.60
2018-11-07T23:08:57.091Z,87.10
2018-11-07T23:11:24.874Z,87.00
2018-11-07T23:13:52.743Z,87.10
2018-11-07T23:16:20.639Z,87.90
2018-11-07T23:18:48.478Z,88.00
2018-11-07T23:21:16.294Z,88.40
2018-11-07T23:23:44.155Z,88.80
2018-11-07T23:26:13.311Z,88.60
2018-11-07T23:28:41.141Z,88.20
2018-11-07T23:31:09.116Z,88.40
2018-11-07T23:33:36.944Z,88.90
2018-11-07T23:36:04.816Z,89.60
2018-11-07T23:38:32.597Z,89.60
2018-11-07T23:41:00.356Z,90.00
2018-11-07T23:43:28.641Z,89.40
2018-11-07T23:45:56.408Z,89.40
2018-11-07T23:48:24.292Z,89.10
2018-11-07T23:50:52.088Z,89.30
2018-11-07T23:53:19.897Z,88.50
2018-11-07T23:55:47.666Z,88.40
2018-11-07T23:58:15.501Z,88.10
